Time;durP1;ratioP1;P1;durP2;ratioP2;P2;SDS_P1;SDS_P2;PMS_P1;PMS_P2;Temp;Humidity;BMP_temperature;BMP_pressure;BME280_temperature;BME280_humidity;BME280_pressure;Samples;Min_cycle;Max_cycle;Signal;HPM_P1;HPM_P2
2023/08/22 00:00:31;;;;;;;9.00;5.70;;;;;;;17.83;95.45;101103.84;105664;1256;69192;-64
2023/08/22 00:03:18;;;;;;;7.50;5.40;;;;;;;17.80;95.41;101099.98;105549;1254;73563;-64
2023/08/22 00:05:46;;;;;;;10.40;5.90;;;;;;;17.79;95.51;101097.41;105626;1257;83538;-64
2023/08/22 00:08:12;;;;;;;8.20;5.50;;;;;;;17.76;95.60;101095.77;105590;1256;73511;-64
2023/08/22 00:10:40;;;;;;;6.70;5.60;;;;;;;17.73;95.70;101095.55;105561;1252;69736;-64
2023/08/22 00:13:07;;;;;;;10.50;5.70;;;;;;;17.72;95.68;101094.43;105568;1257;69200;-63
2023/08/22 00:15:34;;;;;;;7.80;5.90;;;;;;;17.70;95.72;101093.27;105607;1254;74751;-64
2023/08/22 00:18:01;;;;;;;7.20;5.90;;;;;;;17.69;95.92;101089.80;105571;1256;83549;-64
2023/08/22 00:20:28;;;;;;;9.30;5.70;;;;;;;17.69;96.08;101087.33;105592;1255;74098;-67
2023/08/22 00:22:55;;;;;;;8.60;6.10;;;;;;;17.70;96.43;101085.52;105561;1255;69173;-66
2023/08/22 00:25:22;;;;;;;9.00;6.30;;;;;;;17.72;96.66;101092.09;105626;1265;69172;-66
2023/08/22 00:27:49;;;;;;;6.90;6.00;;;;;;;17.75;97.09;101094.92;105575;1257;73971;-66
2023/08/22 00:30:15;;;;;;;10.00;6.00;;;;;;;17.83;97.87;101098.09;105485;1256;82486;-66
2023/08/22 00:32:42;;;;;;;11.70;6.30;;;;;;;17.89;98.16;101098.46;105562;1254;72608;-66
2023/08/22 00:35:11;;;;;;;9.00;5.70;;;;;;;17.93;98.43;101101.90;105622;1257;69221;-66
2023/08/22 00:37:38;;;;;;;8.80;6.40;;;;;;;17.98;98.36;101101.30;105460;1259;69245;-66
2023/08/22 00:40:07;;;;;;;6.70;6.00;;;;;;;17.99;98.31;101098.56;105671;1256;74834;-66
2023/08/22 00:42:34;;;;;;;9.20;6.20;;;;;;;17.97;97.86;101096.55;105531;1257;83308;-66
2023/08/22 00:45:02;;;;;;;6.80;5.80;;;;;;;17.94;97.68;101093.19;105603;1253;72586;-66
2023/08/22 00:47:29;;;;;;;7.80;6.10;;;;;;;17.91;97.56;101087.01;105610;1255;69068;-66
2023/08/22 00:49:56;;;;;;;7.30;6.20;;;;;;;17.90;97.68;101084.77;105614;1256;69266;-66
2023/08/22 00:52:23;;;;;;;10.30;6.20;;;;;;;17.89;97.51;101085.89;105584;1256;73888;-66
2023/08/22 00:54:51;;;;;;;10.60;6.10;;;;;;;17.84;97.35;101084.54;105594;1256;82525;-66
2023/08/22 00:57:18;;;;;;;7.60;5.90;;;;;;;17.81;97.35;101078.88;105626;1257;73092;-66
2023/08/22 00:59:44;;;;;;;11.50;6.50;;;;;;;17.78;97.32;101082.04;105569;1257;69180;-66
2023/08/22 01:02:14;;;;;;;8.00;5.70;;;;;;;17.76;97.43;101083.73;105650;1252;69134;-66
2023/08/22 01:04:43;;;;;;;8.40;6.10;;;;;;;17.73;97.34;101083.20;105632;1256;73455;-66
2023/08/22 01:07:26;;;;;;;7.40;6.50;;;;;;;17.72;97.54;101076.58;105468;1254;83585;-66
2023/08/22 01:09:59;;;;;;;13.10;6.50;;;;;;;17.70;97.65;101078.77;105594;1256;73705;-67
2023/08/22 01:12:32;;;;;;;9.40;6.50;;;;;;;17.69;98.11;101077.05;105640;1264;69169;-66
2023/08/22 01:15:10;;;;;;;9.50;6.30;;;;;;;17.71;98.24;101072.19;105565;1265;69186;-66
2023/08/22 01:17:38;;;;;;;10.40;7.10;;;;;;;17.72;98.56;101071.78;105544;1257;75029;-66
2023/08/22 01:20:11;;;;;;;10.30;6.80;;;;;;;17.74;98.79;101070.09;105523;1257;83249;-67
2023/08/22 01:22:41;;;;;;;10.90;6.80;;;;;;;17.74;98.66;101068.12;105622;1257;73441;-65
2023/08/22 01:25:08;;;;;;;;;;;;;;;17.73;98.58;101066.41;105570;1255;69170;-65
2023/08/22 01:27:58;;;;;;;7.60;6.30;;;;;;;17.72;98.68;101067.89;105458;1258;69177;-65
2023/08/22 01:30:33;;;;;;;9.90;7.20;;;;;;;17.69;98.62;101065.41;105619;1254;75016;-65
2023/08/22 01:33:06;;;;;;;10.70;6.80;;;;;;;17.67;98.51;101069.06;105611;1254;82578;-65
2023/08/22 01:35:34;;;;;;;9.80;7.20;;;;;;;17.61;98.35;101065.13;105590;1256;73630;-65
2023/08/22 01:38:02;;;;;;;7.70;7.00;;;;;;;17.60;98.60;101062.73;105306;1254;69173;-66
2023/08/22 01:40:30;;;;;;;9.60;6.60;;;;;;;17.61;98.70;101066.02;105551;1256;69208;-67
2023/08/22 01:42:59;;;;;;;10.60;8.00;;;;;;;17.60;98.76;101069.63;105498;1257;73878;-64
2023/08/22 01:45:26;;;;;;;9.00;7.20;;;;;;;17.58;98.62;101068.67;105576;1257;82379;-63
2023/08/22 01:47:53;;;;;;;10.20;7.00;;;;;;;17.56;98.90;101063.63;105556;1255;73717;-63
2023/08/22 01:50:20;;;;;;;13.80;8.30;;;;;;;17.57;99.19;101065.34;105454;1256;69189;-63
2023/08/22 01:52:48;;;;;;;9.90;7.60;;;;;;;17.61;99.40;101063.55;105545;1254;69121;-63
2023/08/22 01:55:15;;;;;;;9.50;8.30;;;;;;;17.60;99.13;101063.98;105565;1255;74805;-63
2023/08/22 01:57:45;;;;;;;11.20;7.70;;;;;;;17.58;99.06;101061.22;105531;1257;83877;-64
2023/08/22 02:00:12;;;;;;;12.50;7.50;;;;;;;17.55;98.94;101058.41;105594;1265;72787;-64
2023/08/22 02:02:39;;;;;;;10.30;7.80;;;;;;;17.54;99.07;101056.89;105618;1257;69193;-65
2023/08/22 02:05:07;;;;;;;10.60;7.80;;;;;;;17.52;99.18;101053.95;105534;1256;69177;-65
2023/08/22 02:07:35;;;;;;;10.90;8.10;;;;;;;17.55;99.50;101056.11;105638;1257;73789;-64
2023/08/22 02:10:06;;;;;;;9.80;7.20;;;;;;;17.56;99.42;101057.98;105557;1254;83635;-63
2023/08/22 02:12:33;;;;;;;10.70;7.80;;;;;;;17.55;99.35;101055.23;105530;1252;73196;-63
2023/08/22 02:15:00;;;;;;;10.90;7.20;;;;;;;17.53;99.29;101053.95;105542;1257;69154;-63
2023/08/22 02:17:27;;;;;;;8.50;7.20;;;;;;;17.51;99.15;101051.55;105628;1256;69189;-63
2023/08/22 02:19:56;;;;;;;11.90;8.40;;;;;;;17.50;99.35;101054.46;105561;1257;73856;-63
2023/08/22 02:22:23;;;;;;;10.60;8.20;;;;;;;17.49;99.32;101046.39;105552;1256;83429;-63
2023/08/22 02:24:50;;;;;;;10.40;8.20;;;;;;;17.47;99.16;101039.79;105515;1254;71660;-63
2023/08/22 02:27:17;;;;;;;10.90;8.30;;;;;;;17.43;99.00;101037.54;105600;1258;69140;-63
2023/08/22 02:29:44;;;;;;;12.10;9.00;;;;;;;17.40;98.98;101038.56;105558;1256;69195;-63
2023/08/22 02:32:11;;;;;;;10.40;7.80;;;;;;;17.36;98.93;101035.40;105527;1257;74775;-63
2023/08/22 02:34:40;;;;;;;11.60;8.00;;;;;;;17.35;99.19;101038.67;105603;1256;83454;-63
2023/08/22 02:37:07;;;;;;;12.20;8.20;;;;;;;17.33;99.15;101034.16;105583;1252;73592;-63
2023/08/22 02:39:34;;;;;;;10.50;8.00;;;;;;;17.29;98.80;101031.79;105504;1254;69773;-63
2023/08/22 02:42:01;;;;;;;11.30;8.00;;;;;;;17.23;98.87;101035.64;105597;1255;69168;-63
2023/08/22 02:44:28;;;;;;;9.80;8.00;;;;;;;17.20;98.88;101032.45;105578;1254;72698;-63
2023/08/22 02:46:55;;;;;;;9.40;7.70;;;;;;;17.16;98.91;101030.90;105568;1257;83440;-63
2023/08/22 02:49:22;;;;;;;10.40;8.30;;;;;;;17.13;99.04;101034.39;105522;1255;72665;-63
2023/08/22 02:51:49;;;;;;;9.10;7.80;;;;;;;17.11;99.12;101032.40;105439;1257;69237;-63
2023/08/22 02:54:16;;;;;;;9.80;8.20;;;;;;;17.09;99.18;101031.98;105540;1257;69163;-63
2023/08/22 02:56:43;;;;;;;9.60;7.90;;;;;;;17.07;99.39;101033.83;105626;1255;74818;-64
2023/08/22 02:59:10;;;;;;;8.90;7.50;;;;;;;17.06;99.45;101033.39;105680;1256;83538;-63
2023/08/22 03:01:37;;;;;;;11.50;8.00;;;;;;;17.05;99.55;101032.55;105535;1253;72638;-63
2023/08/22 03:04:04;;;;;;;10.80;8.40;;;;;;;17.03;99.55;101039.19;105528;1256;69238;-63
2023/08/22 03:06:31;;;;;;;10.20;7.90;;;;;;;17.03;99.83;101036.20;105559;1255;69232;-63
2023/08/22 03:08:59;;;;;;;9.80;8.10;;;;;;;17.03;99.94;101038.98;105607;1256;73932;-63
2023/08/22 03:11:27;;;;;;;14.00;7.90;;;;;;;17.03;99.84;101036.17;105610;1255;82394;-63
2023/08/22 03:13:55;;;;;;;10.40;8.30;;;;;;;17.01;99.84;101034.15;105523;1254;73515;-63
2023/08/22 03:16:22;;;;;;;10.20;7.90;;;;;;;17.02;100.00;101032.52;105612;1254;69065;-63
2023/08/22 03:18:49;;;;;;;9.70;7.70;;;;;;;17.02;99.99;101030.05;105558;1257;69740;-63
2023/08/22 03:21:16;;;;;;;11.50;8.30;;;;;;;17.02;100.00;101023.01;105641;1254;74636;-63
2023/08/22 03:23:44;;;;;;;12.80;8.60;;;;;;;17.01;100.00;101017.23;105584;1254;81592;-63
2023/08/22 03:26:13;;;;;;;10.70;8.30;;;;;;;16.99;99.98;101017.67;105633;1257;72622;-63
2023/08/22 03:28:41;;;;;;;9.70;8.10;;;;;;;16.96;99.96;101022.61;105548;1254;69176;-63
2023/08/22 03:31:08;;;;;;;11.80;8.40;;;;;;;16.94;99.89;101027.45;105557;1254;69308;-63
2023/08/22 03:33:35;;;;;;;10.00;7.20;;;;;;;16.91;99.87;101027.11;105484;1257;74820;-63
2023/08/22 03:36:05;;;;;;;;;;;;;;;16.87;99.65;101026.59;105604;1256;83413;-63
2023/08/22 03:38:34;;;;;;;9.90;7.90;;;;;;;16.85;99.84;101024.79;105515;1254;71762;-63
2023/08/22 03:41:02;;;;;;;8.70;7.80;;;;;;;16.82;99.92;101017.19;105572;1256;69064;-63
2023/08/22 03:43:29;;;;;;;13.20;8.10;;;;;;;16.80;99.93;101010.41;105604;1254;69179;-63
2023/08/22 03:45:57;;;;;;;11.80;8.50;;;;;;;16.78;99.94;101008.20;105607;1254;73998;-63
2023/08/22 03:48:24;;;;;;;9.60;8.40;;;;;;;16.78;100.00;101005.07;105610;1257;82479;-63
2023/08/22 03:50:52;;;;;;;9.10;7.80;;;;;;;16.77;100.00;101009.87;105564;1256;72792;-63
2023/08/22 03:53:19;;;;;;;11.60;7.70;;;;;;;16.78;100.00;101012.06;105555;1257;69231;-63
2023/08/22 03:55:46;;;;;;;9.30;8.20;;;;;;;16.81;100.00;101013.16;105661;1256;69113;-63
2023/08/22 03:58:13;;;;;;;10.00;8.30;;;;;;;16.85;100.00;101010.69;105543;1254;73897;-63
2023/08/22 04:00:40;;;;;;;10.30;7.90;;;;;;;16.88;100.00;101005.04;105461;1256;83377;-64
2023/08/22 04:03:07;;;;;;;9.90;7.90;;;;;;;16.89;100.00;101007.46;105501;1257;73607;-63
2023/08/22 04:05:34;;;;;;;8.90;8.00;;;;;;;16.91;100.00;101007.16;105618;1256;69104;-63
2023/08/22 04:08:01;;;;;;;9.70;7.90;;;;;;;16.93;100.00;101008.13;105609;1256;69115;-63
2023/08/22 04:10:28;;;;;;;10.80;8.50;;;;;;;16.95;100.00;101007.13;105528;1255;73691;-63
2023/08/22 04:12:55;;;;;;;10.20;8.70;;;;;;;17.00;100.00;101005.27;105557;1258;83650;-63
2023/08/22 04:15:22;;;;;;;10.00;8.40;;;;;;;17.04;100.00;101002.38;105558;1255;73789;-63
2023/08/22 04:17:50;;;;;;;10.30;8.40;;;;;;;17.08;100.00;101000.95;105511;1257;69203;-63
2023/08/22 04:20:18;;;;;;;9.40;8.40;;;;;;;17.07;100.00;101004.16;105632;1254;69109;-63
2023/08/22 04:22:44;;;;;;;9.20;8.00;;;;;;;17.05;100.00;101006.94;105542;1254;73885;-63
2023/08/22 04:25:13;;;;;;;12.50;8.50;;;;;;;17.03;100.00;101016.21;105582;1256;83747;-63
2023/08/22 04:27:40;;;;;;;9.70;7.80;;;;;;;17.04;100.00;101018.13;105563;1255;73712;-63
2023/08/22 04:30:11;;;;;;;10.60;8.00;;;;;;;17.06;100.00;101020.29;105546;1254;69102;-63
2023/08/22 04:32:38;;;;;;;10.40;7.70;;;;;;;17.08;100.00;101021.28;105597;1257;69186;-67
2023/08/22 04:35:07;;;;;;;10.80;8.40;;;;;;;17.08;100.00;101018.98;105629;1255;73676;-65
2023/08/22 04:37:37;;;;;;;10.90;7.90;;;;;;;17.08;100.00;101018.40;105594;1254;82416;-65
2023/08/22 04:40:05;;;;;;;9.80;7.50;;;;;;;17.10;100.00;101019.56;105590;1254;73562;-66
2023/08/22 04:42:50;;;;;;;11.00;7.70;;;;;;;17.10;100.00;101020.94;105563;1257;69184;-65
2023/08/22 04:45:18;;;;;;;11.10;8.20;;;;;;;17.14;100.00;101016.68;105621;1256;69198;-65
2023/08/22 04:47:45;;;;;;;12.40;9.20;;;;;;;17.20;100.00;101012.12;105534;1254;75003;-66
2023/08/22 04:50:13;;;;;;;11.60;8.50;;;;;;;17.26;100.00;101013.18;105557;1257;83405;-66
2023/08/22 04:52:40;;;;;;;13.10;9.10;;;;;;;17.34;100.00;101018.21;105562;1255;73886;-65
2023/08/22 04:55:07;;;;;;;13.50;8.60;;;;;;;17.42;100.00;101024.54;105454;1257;69227;-66
2023/08/22 04:57:34;;;;;;;18.70;9.10;;;;;;;17.51;100.00;101022.61;105644;1255;69111;-66
2023/08/22 05:00:03;;;;;;;14.50;8.60;;;;;;;17.55;100.00;101023.77;105557;1257;73877;-66
2023/08/22 05:02:30;;;;;;;13.00;8.60;;;;;;;17.63;100.00;101025.27;105564;1254;83215;-66
2023/08/22 05:04:58;;;;;;;11.80;8.70;;;;;;;17.70;100.00;101022.92;105602;1254;73660;-66
2023/08/22 05:07:25;;;;;;;10.80;9.10;;;;;;;17.79;100.00;101018.73;105642;1255;69086;-66
2023/08/22 05:09:52;;;;;;;11.60;8.80;;;;;;;17.84;100.00;101014.20;105615;1255;69182;-63
2023/08/22 05:12:20;;;;;;;10.50;8.50;;;;;;;17.86;100.00;101015.34;105623;1254;74840;-63
2023/08/22 05:14:47;;;;;;;9.70;8.50;;;;;;;17.88;100.00;101010.63;105437;1255;82395;-64
2023/08/22 05:17:14;;;;;;;12.70;9.00;;;;;;;17.90;100.00;101009.62;105579;1254;73896;-63
2023/08/22 05:19:42;;;;;;;9.60;8.40;;;;;;;17.90;100.00;101016.13;105770;1254;69054;-63
2023/08/22 05:22:09;;;;;;;11.80;8.70;;;;;;;17.91;100.00;101013.46;105568;1258;69201;-62
2023/08/22 05:24:38;;;;;;;12.10;8.90;;;;;;;17.96;100.00;101006.29;105440;1260;74613;-62
2023/08/22 05:27:05;;;;;;;12.90;8.40;;;;;;;18.03;100.00;101004.23;105639;1257;83273;-64
2023/08/22 05:29:33;;;;;;;13.10;8.40;;;;;;;18.10;100.00;101003.16;105783;1257;74663;-61
2023/08/22 05:32:01;;;;;;;11.70;8.50;;;;;;;18.16;100.00;100999.46;105730;1254;69048;-64
2023/08/22 05:34:28;;;;;;;10.60;8.50;;;;;;;18.22;100.00;101002.07;105652;1253;69198;-62
2023/08/22 05:36:55;;;;;;;10.30;8.40;;;;;;;18.29;100.00;101007.15;105575;1254;73874;-61
2023/08/22 05:39:22;;;;;;;12.10;8.60;;;;;;;18.36;100.00;101007.98;105572;1256;83414;-61
2023/08/22 05:41:49;;;;;;;9.70;8.10;;;;;;;18.41;100.00;101012.43;105598;1254;72647;-61
2023/08/22 05:44:17;;;;;;;12.00;8.40;;;;;;;18.45;100.00;101013.10;105850;1254;68994;-61
2023/08/22 05:46:44;;;;;;;14.00;9.00;;;;;;;18.47;100.00;101008.36;105604;1252;69183;-61
2023/08/22 05:49:12;;;;;;;13.90;8.10;;;;;;;18.53;100.00;101009.42;105675;1253;74262;-61
2023/08/22 05:51:39;;;;;;;13.50;8.40;;;;;;;18.60;100.00;101011.82;105590;1256;83283;-61
2023/08/22 05:54:06;;;;;;;10.60;8.20;;;;;;;18.72;100.00;101013.96;105579;1257;72491;-63
2023/08/22 05:56:34;;;;;;;12.10;7.70;;;;;;;18.85;100.00;101014.25;105581;1254;69074;-62
2023/08/22 05:59:01;;;;;;;11.00;8.40;;;;;;;18.98;100.00;101009.35;105509;1257;69246;-63
2023/08/22 06:01:28;;;;;;;9.80;7.90;;;;;;;19.11;100.00;101008.86;105937;1256;75124;-63
2023/08/22 06:03:55;;;;;;;9.20;7.30;;;;;;;19.23;100.00;101002.46;105748;1256;82013;-60
2023/08/22 06:06:22;;;;;;;13.10;7.90;;;;;;;19.36;100.00;100998.98;105509;1255;73638;-61
2023/08/22 06:08:49;;;;;;;10.40;7.50;;;;;;;19.48;99.98;100998.38;108114;1253;69171;-60
2023/08/22 06:11:17;;;;;;;11.80;7.10;;;;;;;19.57;99.40;101001.53;109208;1253;67585;-62
2023/08/22 06:13:43;;;;;;;10.90;6.80;;;;;;;19.63;99.27;100993.49;109248;1253;73807;-62
2023/08/22 06:16:11;;;;;;;10.10;7.10;;;;;;;19.72;99.07;100988.85;109251;1253;83964;-62
2023/08/22 06:18:37;;;;;;;10.00;6.30;;;;;;;19.80;98.76;100983.71;109278;1253;72606;-63
2023/08/22 06:21:04;;;;;;;9.10;7.30;;;;;;;19.87;98.30;100979.02;108123;1253;68995;-63
2023/08/22 06:23:31;;;;;;;8.00;6.20;;;;;;;19.97;98.42;100981.16;109294;1256;67184;-65
2023/08/22 06:25:58;;;;;;;9.40;6.20;;;;;;;20.08;98.34;100977.77;107085;1251;73894;-64
2023/08/22 06:28:25;;;;;;;8.60;6.20;;;;;;;20.16;97.85;100972.24;105457;1256;83372;-63
2023/08/22 06:30:53;;;;;;;8.90;6.10;;;;;;;20.17;97.49;100970.92;105639;1255;73991;-62
2023/08/22 06:33:21;;;;;;;15.40;6.40;;;;;;;20.20;97.25;100973.95;105618;1257;69307;-64
2023/08/22 06:35:48;;;;;;;10.40;5.60;;;;;;;20.22;97.39;100974.47;105650;1256;69189;-63
2023/08/22 06:38:14;;;;;;;10.50;5.70;;;;;;;20.28;97.34;100971.79;105577;1254;72872;-64
2023/08/22 06:40:42;;;;;;;11.50;5.00;;;;;;;20.36;97.57;100972.52;105634;1254;82638;-64
2023/08/22 06:43:09;;;;;;;7.30;5.10;;;;;;;20.42;97.23;100976.52;105526;1255;72264;-64
2023/08/22 06:45:37;;;;;;;10.00;5.50;;;;;;;20.47;96.93;100976.46;105618;1254;68994;-63
2023/08/22 06:48:05;;;;;;;7.00;4.80;;;;;;;20.54;96.66;100977.83;105524;1256;69179;-64
2023/08/22 06:50:32;;;;;;;9.40;5.30;;;;;;;20.66;96.74;100980.56;105642;1254;74842;-64
2023/08/22 06:53:00;;;;;;;9.40;5.10;;;;;;;20.82;96.45;100974.79;105567;1254;82525;-64
2023/08/22 06:55:26;;;;;;;9.90;5.40;;;;;;;21.04;96.51;100975.37;105575;1253;72546;-64
2023/08/22 06:57:53;;;;;;;9.20;4.80;;;;;;;21.24;95.83;100980.48;105550;1256;69191;-64
2023/08/22 07:00:21;;;;;;;8.30;4.70;;;;;;;21.41;95.46;100978.24;105564;1255;69115;-64
2023/08/22 07:02:48;;;;;;;6.90;4.80;;;;;;;21.53;95.17;100967.88;105517;1256;74817;-64
2023/08/22 07:05:17;;;;;;;7.50;4.80;;;;;;;21.65;94.27;100961.52;105557;1255;83239;-64
2023/08/22 07:07:44;;;;;;;5.40;4.50;;;;;;;21.65;93.33;100959.08;105636;1254;73808;-64
2023/08/22 07:10:12;;;;;;;7.90;4.40;;;;;;;21.66;93.35;100957.71;105654;1254;69051;-64
2023/08/22 07:12:41;;;;;;;;;;;;;;;21.71;93.32;100956.04;105608;1254;69105;-64
2023/08/22 07:15:09;;;;;;;7.70;4.40;;;;;;;21.76;92.96;100957.99;105598;1254;73896;-64
2023/08/22 07:17:35;;;;;;;9.30;4.60;;;;;;;21.81;92.69;100956.57;105643;1256;83398;-64
2023/08/22 07:20:03;;;;;;;8.50;4.90;;;;;;;21.83;92.29;100955.33;105601;1256;73582;-64
2023/08/22 07:22:32;;;;;;;10.80;4.40;;;;;;;21.89;92.37;100951.86;105606;1257;69069;-64
2023/08/22 07:24:59;;;;;;;7.40;4.60;;;;;;;21.96;91.95;100945.84;105602;1257;69123;-64
2023/08/22 07:27:26;;;;;;;7.50;4.80;;;;;;;22.03;91.66;100945.30;105557;1254;74840;-64
2023/08/22 07:29:53;;;;;;;7.30;5.00;;;;;;;22.12;91.84;100944.30;105596;1254;83810;-64
2023/08/22 07:32:20;;;;;;;7.80;4.70;;;;;;;22.19;91.48;100940.73;105587;1256;73043;-64
2023/08/22 07:34:47;;;;;;;7.10;4.60;;;;;;;22.25;91.05;100937.23;105555;1254;69094;-64
2023/08/22 07:37:15;;;;;;;9.60;5.20;;;;;;;22.32;91.09;100938.65;105550;1256;69192;-64
2023/08/22 07:39:42;;;;;;;10.10;5.30;;;;;;;22.41;90.72;100935.77;105607;1255;73806;-64
2023/08/22 07:42:09;;;;;;;8.50;4.60;;;;;;;22.47;89.99;100932.30;105605;1254;83267;-64
2023/08/22 07:44:36;;;;;;;9.20;5.20;;;;;;;22.50;89.37;100936.67;105548;1253;72653;-64
2023/08/22 07:47:03;;;;;;;9.50;4.50;;;;;;;22.57;89.08;100932.23;105562;1255;69124;-64
2023/08/22 07:49:30;;;;;;;7.50;4.70;;;;;;;22.69;89.38;100939.13;105583;1254;69205;-64
2023/08/22 07:51:58;;;;;;;8.00;4.70;;;;;;;22.82;88.91;100937.04;105584;1256;72462;-64
2023/08/22 07:54:25;;;;;;;7.30;4.40;;;;;;;22.92;88.87;100934.23;105611;1256;82404;-64
2023/08/22 07:56:52;;;;;;;7.50;4.70;;;;;;;23.04;88.61;100936.16;105321;1257;293136;-64
2023/08/22 07:59:34;;;;;;;7.30;4.00;;;;;;;23.14;87.99;100939.27;105551;1252;69093;-64
2023/08/22 08:02:01;;;;;;;5.70;4.50;;;;;;;23.23;87.99;100938.34;105550;1256;69183;-65
2023/08/22 08:04:30;;;;;;;6.90;4.70;;;;;;;23.35;87.66;100937.91;105536;1254;73928;-64
2023/08/22 08:06:57;;;;;;;7.70;4.20;;;;;;;23.46;87.36;100930.44;105640;1254;82327;-64
2023/08/22 08:09:24;;;;;;;7.50;5.20;;;;;;;23.56;86.97;100926.75;105561;1252;73685;-65
2023/08/22 08:12:03;;;;;;;6.90;4.90;;;;;;;23.65;86.50;100931.31;105552;1256;69063;-66
2023/08/22 08:14:30;;;;;;;5.70;4.30;;;;;;;23.73;86.12;100929.40;105624;1254;69166;-65
2023/08/22 08:16:57;;;;;;;8.00;4.70;;;;;;;23.82;85.82;100933.19;105597;1256;75278;-65
2023/08/22 08:19:24;;;;;;;11.00;4.70;;;;;;;23.89;85.34;100931.31;105596;1256;83670;-65
2023/08/22 08:21:54;;;;;;;8.30;4.60;;;;;;;24.00;85.16;100927.14;105621;1254;72546;-65
2023/08/22 08:24:21;;;;;;;7.40;4.40;;;;;;;24.15;85.13;100924.10;105636;1254;69063;-65
2023/08/22 08:26:48;;;;;;;7.70;4.80;;;;;;;24.28;84.74;100923.34;105599;1254;69202;-65
2023/08/22 08:29:17;;;;;;;6.20;4.40;;;;;;;24.35;83.85;100921.34;105600;1254;74708;-64
2023/08/22 08:31:44;;;;;;;7.20;4.40;;;;;;;24.40;83.82;100917.96;105609;1255;83649;-65
2023/08/22 08:34:11;;;;;;;6.30;4.20;;;;;;;24.55;83.85;100917.65;105574;1256;72594;-65
2023/08/22 08:36:38;;;;;;;7.60;4.80;;;;;;;24.70;83.81;100919.52;105417;1254;69192;-65
2023/08/22 08:39:05;;;;;;;7.50;4.90;;;;;;;24.81;83.27;100913.58;105581;1252;69205;-65
2023/08/22 08:41:33;;;;;;;7.20;4.40;;;;;;;24.91;82.86;100914.20;105571;1256;73964;-65
2023/08/22 08:44:01;;;;;;;10.60;4.60;;;;;;;25.00;82.66;100911.30;105642;1257;84015;-65
2023/08/22 08:46:29;;;;;;;5.20;4.60;;;;;;;25.13;82.46;100911.05;105566;1253;72663;-65
2023/08/22 08:48:57;;;;;;;6.60;4.60;;;;;;;25.27;82.21;100908.55;105614;1254;69159;-65
2023/08/22 08:51:24;;;;;;;7.30;4.40;;;;;;;25.35;81.31;100906.34;105585;1254;69240;-65
2023/08/22 08:53:52;;;;;;;7.40;4.40;;;;;;;25.46;81.18;100906.61;105529;1256;73880;-65
2023/08/22 08:56:19;;;;;;;9.50;4.70;;;;;;;25.60;80.75;100901.59;105523;1255;82215;-65
2023/08/22 08:58:48;;;;;;;6.70;4.20;;;;;;;25.75;80.10;100906.98;105572;1251;73568;-65
2023/08/22 09:01:15;;;;;;;10.70;4.90;;;;;;;25.84;79.18;100909.89;105583;1253;69086;-65
2023/08/22 09:03:44;;;;;;;6.20;4.60;;;;;;;25.93;79.14;100907.64;105621;1252;69103;-65
2023/08/22 09:06:11;;;;;;;6.40;4.70;;;;;;;26.05;78.80;100908.63;105636;1256;75143;-65
2023/08/22 09:08:39;;;;;;;5.30;4.20;;;;;;;26.18;78.89;100911.70;105535;1254;82408;-65
2023/08/22 09:11:06;;;;;;;8.50;4.80;;;;;;;26.34;78.45;100912.39;105638;1252;72806;-65
2023/08/22 09:13:36;;;;;;;8.60;4.60;;;;;;;26.46;77.85;100914.61;105572;1254;69099;-65
2023/08/22 09:16:26;;;;;;;7.40;4.70;;;;;;;26.60;76.92;100911.54;105596;1256;69164;-65
2023/08/22 09:19:00;;;;;;;8.90;4.50;;;;;;;26.68;76.42;100907.48;105620;1254;73872;-65
2023/08/22 09:21:28;;;;;;;8.70;4.40;;;;;;;26.71;75.54;100904.48;105663;1254;83233;-65
2023/08/22 09:24:08;;;;;;;9.10;4.60;;;;;;;26.70;74.94;100898.66;105603;1254;73740;-65
2023/08/22 09:26:36;;;;;;;7.40;4.70;;;;;;;26.84;75.31;100900.06;105584;1252;69197;-65
2023/08/22 09:29:07;;;;;;;8.60;4.90;;;;;;;26.97;74.81;100893.55;105579;1256;69126;-65
2023/08/22 09:31:35;;;;;;;7.70;4.60;;;;;;;27.04;73.68;100890.31;105616;1253;73613;-65
2023/08/22 09:34:08;;;;;;;8.20;4.60;;;;;;;27.12;73.97;100888.47;105682;1256;83594;-65
2023/08/22 09:36:44;;;;;;;6.80;4.60;;;;;;;27.29;73.62;100882.16;105593;1254;72670;-65
2023/08/22 09:39:20;;;;;;;6.50;4.80;;;;;;;27.39;73.27;100873.96;105571;1256;69215;-65
2023/08/22 09:41:53;;;;;;;7.20;4.50;;;;;;;27.44;72.49;100872.52;105603;1252;69131;-65
2023/08/22 09:44:25;;;;;;;5.60;4.60;;;;;;;27.51;71.81;100868.04;105623;1255;75103;-65
2023/08/22 09:46:53;;;;;;;9.70;4.90;;;;;;;27.64;71.92;100870.36;105621;1254;82469;-65
2023/08/22 09:49:21;;;;;;;7.20;4.90;;;;;;;27.77;71.03;100864.02;105602;1254;74140;-65
2023/08/22 09:51:51;;;;;;;6.20;4.30;;;;;;;27.89;70.95;100858.83;105576;1257;69172;-65
2023/08/22 09:54:17;;;;;;;8.40;4.40;;;;;;;28.06;70.80;100856.94;105623;1254;69153;-65
2023/08/22 09:56:45;;;;;;;6.90;4.40;;;;;;;28.26;70.78;100857.55;105564;1254;73741;-65
2023/08/22 09:59:16;;;;;;;5.60;4.30;;;;;;;28.39;69.79;100853.45;105670;1256;82983;-65
2023/08/22 10:01:43;;;;;;;7.10;4.50;;;;;;;28.54;70.04;100853.66;105584;1253;73512;-65
2023/08/22 10:04:12;;;;;;;6.20;4.60;;;;;;;28.77;69.52;100846.19;105529;1253;69065;-65
2023/08/22 10:06:39;;;;;;;;;;;;;;;28.96;68.18;100844.00;105522;1254;69211;-65
2023/08/22 10:09:12;;;;;;;4.40;3.90;;;;;;;29.08;67.79;100837.51;105048;1260;73857;-65
2023/08/22 10:11:48;;;;;;;5.20;4.40;;;;;;;29.23;67.25;100827.40;105029;1262;83303;-65
2023/08/22 10:14:45;;;;;;;5.00;4.20;;;;;;;29.39;66.54;100822.73;105037;1257;73549;-63
2023/08/22 10:17:13;;;;;;;8.50;4.50;;;;;;;29.62;67.01;100825.10;105118;1261;69206;-64
2023/08/22 10:19:43;;;;;;;5.80;4.40;;;;;;;29.84;66.37;100821.91;105142;1259;69261;-63
2023/08/22 10:22:12;;;;;;;5.50;4.30;;;;;;;30.08;65.45;100819.98;105106;1258;75000;-64
2023/08/22 10:24:42;;;;;;;6.80;4.40;;;;;;;30.23;65.44;100815.05;105135;1257;83825;-64
2023/08/22 10:27:15;;;;;;;6.90;4.40;;;;;;;30.47;64.62;100815.56;105276;1253;74113;-64
2023/08/22 10:29:47;;;;;;;5.70;4.40;;;;;;;30.60;64.05;100811.38;105596;1254;69154;-63
2023/08/22 10:32:14;;;;;;;6.00;4.40;;;;;;;30.80;63.99;100806.66;105587;1254;69208;-63
2023/08/22 10:34:41;;;;;;;7.70;4.70;;;;;;;31.09;63.67;100805.49;105630;1254;75097;-63
2023/08/22 10:37:22;;;;;;;7.70;4.80;;;;;;;31.36;62.83;100803.52;105583;1253;83499;-64
2023/08/22 10:39:49;;;;;;;5.50;4.30;;;;;;;31.58;61.95;100802.05;105639;1253;72976;-64
2023/08/22 10:42:17;;;;;;;6.00;4.20;;;;;;;31.73;61.55;100796.14;105595;1253;69119;-64
2023/08/22 10:44:51;;;;;;;8.50;4.50;;;;;;;31.89;60.74;100795.15;105637;1254;69190;-64
2023/08/22 10:47:20;;;;;;;5.10;4.10;;;;;;;32.03;59.73;100794.64;105661;1256;73843;-64
2023/08/22 10:50:00;;;;;;;6.90;4.40;;;;;;;32.08;59.18;100788.55;105690;1254;82753;-64
2023/08/22 10:52:43;;;;;;;6.60;4.60;;;;;;;32.34;59.02;100783.38;105605;1254;72636;-66
2023/08/22 10:55:13;;;;;;;6.20;4.70;;;;;;;32.57;58.60;100781.97;105599;1253;69234;-64
2023/08/22 10:57:45;;;;;;;6.70;4.30;;;;;;;32.66;57.68;100780.44;105676;1253;69476;-64
2023/08/22 11:00:19;;;;;;;6.20;4.50;;;;;;;32.75;57.23;100778.27;105624;1254;73752;-64
2023/08/22 11:02:57;;;;;;;7.60;4.10;;;;;;;32.86;56.84;100774.52;105610;1254;83375;-65
2023/08/22 11:05:26;;;;;;;6.10;4.20;;;;;;;33.03;56.73;100773.52;105615;1255;73874;-64
2023/08/22 11:07:53;;;;;;;6.90;4.50;;;;;;;33.40;56.38;100774.91;105612;1253;69205;-64
2023/08/22 11:10:24;;;;;;;9.30;4.00;;;;;;;33.55;55.40;100774.80;105583;1254;69162;-64
2023/08/22 11:12:54;;;;;;;4.90;4.30;;;;;;;33.69;55.29;100768.12;105610;1254;75171;-64
2023/08/22 11:15:21;;;;;;;6.20;4.10;;;;;;;33.80;54.40;100766.02;105576;1254;83881;-64
2023/08/22 11:17:50;;;;;;;4.30;3.90;;;;;;;33.68;53.93;100767.95;105629;1253;72548;-64
2023/08/22 11:20:23;;;;;;;4.50;3.70;;;;;;;33.72;53.34;100762.66;105633;1252;69064;-64